createdAt,value
2018-09-27T00:01:06.221Z,2.93
2018-09-27T00:03:36.978Z,3.53
2018-09-27T00:06:07.966Z,2.67
2018-09-27T00:08:38.835Z,2.47
2018-09-27T00:11:08.976Z,3.87
2018-09-27T00:13:40.587Z,3.40
2018-09-27T00:16:11.310Z,3.20
2018-09-27T00:18:43.441Z,3.10
2018-09-27T00:21:14.602Z,3.20
2018-09-27T00:23:45.338Z,3.37
2018-09-27T00:26:17.286Z,3.30
2018-09-27T00:28:48.341Z,3.10
2018-09-27T00:31:18.950Z,3.50
2018-09-27T00:33:49.958Z,3.53
2018-09-27T00:36:20.301Z,3.23
2018-09-27T00:38:51.226Z,3.10
2018-09-27T00:41:22.089Z,3.50
2018-09-27T00:43:52.722Z,3.00
2018-09-27T00:46:23.462Z,3.10
2018-09-27T00:49:02.771Z,3.50
2018-09-27T00:51:33.368Z,3.10
2018-09-27T00:54:04.604Z,3.20
2018-09-27T00:56:47.444Z,3.27
2018-09-27T00:59:18.046Z,3.23
2018-09-27T01:01:48.727Z,3.30
2018-09-27T01:04:19.020Z,3.00
2018-09-27T01:06:49.825Z,3.47
2018-09-27T01:09:20.370Z,3.47
2018-09-27T01:11:51.262Z,3.10
2018-09-27T01:14:21.876Z,3.00
2018-09-27T01:17:01.996Z,3.57
2018-09-27T01:19:33.193Z,3.03
2018-09-27T01:22:04.149Z,3.07
2018-09-27T01:24:34.449Z,3.20
2018-09-27T01:27:05.497Z,2.93
2018-09-27T01:29:36.424Z,3.30
2018-09-27T01:32:07.542Z,3.30
2018-09-27T01:34:42.027Z,3.30
2018-09-27T01:37:12.864Z,3.53
2018-09-27T01:39:43.439Z,3.40
2018-09-27T01:42:13.795Z,3.43
2018-09-27T01:44:45.197Z,3.20
2018-09-27T01:47:15.850Z,3.10
2018-09-27T01:49:47.009Z,3.33
2018-09-27T01:52:18.324Z,3.40
2018-09-27T01:54:48.766Z,2.73
2018-09-27T01:57:19.000Z,3.40
2018-09-27T01:59:49.230Z,3.70
2018-09-27T02:02:21.738Z,2.70
2018-09-27T02:04:52.367Z,2.90
2018-09-27T02:07:29.902Z,3.40
2018-09-27T02:10:00.278Z,3.17
2018-09-27T02:12:30.729Z,3.50
2018-09-27T02:15:00.836Z,2.93
2018-09-27T02:17:31.826Z,2.57
2018-09-27T02:20:02.164Z,3.37
2018-09-27T02:22:33.068Z,3.70
2018-09-27T02:25:03.986Z,3.57
2018-09-27T02:27:34.990Z,3.47
2018-09-27T02:30:11.734Z,3.60
2018-09-27T02:32:42.464Z,3.70
2018-09-27T02:35:13.802Z,3.57
2018-09-27T02:37:43.870Z,3.60
2018-09-27T02:40:14.299Z,3.70
2018-09-27T02:42:44.678Z,3.53
2018-09-27T02:45:15.050Z,3.70
2018-09-27T02:47:46.668Z,3.57
2018-09-27T02:50:17.607Z,3.47
2018-09-27T02:52:49.195Z,3.73
2018-09-27T02:55:19.581Z,3.43
2018-09-27T02:57:50.388Z,3.60
2018-09-27T03:00:20.296Z,3.30
2018-09-27T03:02:50.854Z,3.33
2018-09-27T03:05:20.851Z,3.30
2018-09-27T03:07:51.241Z,3.57
2018-09-27T03:10:22.271Z,3.20
2018-09-27T03:12:52.773Z,3.23
2018-09-27T03:15:24.319Z,3.90
2018-09-27T03:17:55.456Z,3.23
2018-09-27T03:20:26.386Z,3.40
2018-09-27T03:22:58.330Z,3.40
2018-09-27T03:25:29.810Z,4.20
2018-09-27T03:28:04.104Z,3.27
2018-09-27T03:30:35.318Z,3.80
2018-09-27T03:33:06.698Z,3.33
2018-09-27T03:35:37.436Z,3.83
2018-09-27T03:38:08.655Z,3.30
2018-09-27T03:40:39.345Z,3.97
2018-09-27T03:43:09.664Z,3.60
2018-09-27T03:45:40.434Z,3.77
2018-09-27T03:48:10.830Z,3.73
2018-09-27T03:50:41.094Z,4.20
2018-09-27T03:53:11.607Z,3.50
2018-09-27T03:55:41.562Z,3.00
2018-09-27T03:58:12.875Z,3.60
2018-09-27T04:00:43.533Z,3.70
2018-09-27T04:03:14.391Z,4.10
2018-09-27T04:05:44.980Z,3.97
2018-09-27T04:11:08.493Z,3.77
2018-09-27T04:13:44.789Z,4.17
2018-09-27T04:16:15.157Z,3.67
2018-09-27T04:18:46.647Z,3.40
2018-09-27T04:21:17.865Z,3.53
2018-09-27T04:23:47.813Z,3.70
2018-09-27T04:26:18.187Z,3.97
2018-09-27T04:28:48.135Z,4.40
2018-09-27T04:31:18.445Z,3.73
2018-09-27T04:33:48.832Z,3.63
2018-09-27T04:36:19.089Z,4.73
2018-09-27T04:38:49.325Z,4.00
2018-09-27T04:41:19.830Z,4.40
2018-09-27T04:43:49.910Z,3.80
2018-09-27T04:46:20.669Z,4.23
2018-09-27T04:48:54.410Z,4.37
2018-09-27T04:51:24.618Z,4.00
2018-09-27T04:53:54.655Z,4.20
2018-09-27T04:56:29.791Z,4.40
2018-09-27T04:58:59.907Z,4.27
2018-09-27T05:01:33.195Z,3.80
2018-09-27T05:04:02.476Z,3.70
2018-09-27T05:06:32.593Z,3.80
2018-09-27T05:09:02.888Z,3.97
2018-09-27T05:11:32.041Z,4.50
2018-09-27T05:14:01.416Z,3.93
2018-09-27T05:16:30.868Z,4.00
2018-09-27T05:19:00.882Z,4.00
2018-09-27T05:21:31.174Z,3.70
2018-09-27T05:24:01.103Z,4.17
2018-09-27T05:26:30.902Z,4.27
2018-09-27T05:29:00.778Z,4.00
2018-09-27T05:31:30.354Z,4.20
2018-09-27T05:34:00.119Z,4.60
2018-09-27T05:36:30.046Z,3.83
2018-09-27T05:38:59.773Z,4.53
2018-09-27T05:41:29.722Z,4.17
2018-09-27T05:43:59.019Z,4.20
2018-09-27T05:46:29.031Z,4.07
2018-09-27T05:48:58.671Z,4.40
2018-09-27T05:51:51.801Z,4.03
2018-09-27T05:54:21.963Z,3.77
2018-09-27T05:56:52.815Z,3.70
2018-09-27T05:59:23.147Z,3.80
2018-09-27T06:01:56.414Z,3.60
2018-09-27T06:04:26.526Z,4.60
2018-09-27T06:07:09.365Z,3.93
2018-09-27T06:09:39.404Z,3.70
2018-09-27T06:12:09.211Z,4.00
2018-09-27T06:14:39.710Z,3.50
2018-09-27T06:17:09.749Z,4.00
2018-09-27T06:19:45.674Z,3.97
2018-09-27T06:22:15.563Z,3.50
2018-09-27T06:25:04.057Z,3.43
2018-09-27T06:27:34.298Z,4.20
2018-09-27T06:30:09.620Z,3.90
2018-09-27T06:32:39.434Z,4.10
2018-09-27T06:35:09.278Z,3.77
2018-09-27T06:37:39.236Z,4.27
2018-09-27T06:40:09.135Z,4.30
2018-09-27T06:42:38.844Z,4.43
2018-09-27T06:45:09.764Z,4.20
2018-09-27T06:47:45.213Z,3.90
2018-09-27T06:50:14.962Z,3.47
2018-09-27T06:52:55.427Z,3.50
2018-09-27T06:55:26.006Z,4.10
2018-09-27T06:57:58.823Z,3.67
2018-09-27T07:00:28.304Z,3.50
2018-09-27T07:02:58.334Z,3.13
2018-09-27T07:05:28.310Z,3.13
2018-09-27T07:07:57.808Z,3.50
2018-09-27T07:10:27.944Z,3.70
2018-09-27T07:12:57.553Z,3.80
2018-09-27T07:15:27.604Z,4.00
2018-09-27T07:17:58.160Z,3.57
2018-09-27T07:20:50.388Z,3.47
2018-09-27T07:23:20.538Z,3.83
2018-09-27T07:25:50.207Z,2.80
2018-09-27T07:28:20.080Z,3.30
2018-09-27T07:30:49.950Z,3.50
2018-09-27T07:33:19.841Z,2.97
2018-09-27T07:35:49.940Z,3.13
2018-09-27T07:38:19.597Z,3.50
2018-09-27T07:40:49.306Z,3.23
2018-09-27T07:43:19.239Z,3.10
2018-09-27T07:45:48.908Z,4.10
2018-09-27T07:48:28.232Z,3.47
2018-09-27T07:50:58.151Z,3.27
2018-09-27T07:53:28.441Z,3.40
2018-09-27T07:55:58.269Z,3.47
2018-09-27T08:01:22.858Z,3.73
2018-09-27T08:03:53.963Z,3.23
2018-09-27T08:06:23.274Z,3.40
2018-09-27T08:08:53.199Z,3.20
2018-09-27T08:11:23.047Z,3.10
2018-09-27T08:13:54.023Z,3.13
2018-09-27T08:16:23.743Z,2.80
2018-09-27T08:18:53.494Z,3.53
2018-09-27T08:21:23.447Z,3.10
2018-09-27T08:24:06.317Z,3.40
2018-09-27T08:26:36.634Z,3.63
2018-09-27T08:29:06.981Z,3.87
2018-09-27T08:31:36.929Z,3.47
2018-09-27T08:34:10.773Z,3.20
2018-09-27T08:36:40.974Z,3.30
2018-09-27T08:39:12.294Z,3.43
2018-09-27T08:41:42.140Z,3.83
2018-09-27T08:44:12.660Z,3.33
2018-09-27T08:46:43.610Z,3.50
2018-09-27T08:49:13.427Z,3.70
2018-09-27T08:51:52.903Z,3.63
2018-09-27T08:54:22.445Z,3.50
2018-09-27T08:56:52.627Z,3.50
2018-09-27T08:59:22.073Z,3.73
2018-09-27T09:02:04.962Z,3.83
2018-09-27T09:04:34.859Z,4.00
2018-09-27T09:07:04.927Z,3.70
2018-09-27T09:09:34.747Z,4.00
2018-09-27T09:12:09.539Z,4.40
2018-09-27T09:14:39.661Z,5.40
2018-09-27T09:17:09.443Z,5.27
2018-09-27T09:19:39.507Z,5.07
2018-09-27T09:22:12.262Z,4.80
2018-09-27T09:24:42.440Z,5.00
2018-09-27T09:27:12.325Z,4.80
2018-09-27T09:29:42.253Z,4.60
2018-09-27T09:32:11.900Z,5.17
2018-09-27T09:34:42.234Z,5.17
2018-09-27T09:37:11.960Z,4.70
2018-09-27T09:39:41.610Z,5.07
2018-09-27T09:42:11.550Z,6.20
2018-09-27T09:44:41.407Z,5.77
2018-09-27T09:47:14.710Z,6.20
2018-09-27T09:49:44.598Z,5.80
2018-09-27T09:52:20.138Z,6.07
2018-09-27T09:54:49.973Z,6.77
2018-09-27T09:57:20.011Z,6.67
2018-09-27T09:59:49.941Z,5.73
2018-09-27T10:02:19.932Z,6.97
2018-09-27T10:04:49.555Z,6.17
2018-09-27T10:07:19.619Z,7.00
2018-09-27T10:09:49.135Z,7.27
2018-09-27T10:12:25.628Z,7.30
2018-09-27T10:14:55.552Z,7.50
2018-09-27T10:18:40.531Z,6.93
2018-09-27T10:21:10.521Z,6.87
2018-09-27T10:23:40.430Z,8.17
2018-09-27T10:26:11.414Z,7.27
2018-09-27T10:28:40.932Z,8.30
2018-09-27T10:31:10.853Z,8.50
2018-09-27T10:33:41.119Z,8.80
2018-09-27T10:36:20.365Z,9.87
2018-09-27T10:38:50.142Z,8.83
2018-09-27T10:41:20.329Z,8.90
2018-09-27T10:43:51.044Z,9.47
2018-09-27T10:46:20.890Z,9.40
2018-09-27T10:48:50.837Z,9.47
2018-09-27T10:51:22.867Z,9.63
2018-09-27T10:53:52.322Z,8.80
2018-09-27T10:56:22.894Z,9.23
2018-09-27T10:58:52.797Z,9.53
2018-09-27T11:01:27.355Z,8.97
2018-09-27T11:03:57.428Z,9.30
2018-09-27T11:06:27.493Z,9.30
2018-09-27T11:08:57.589Z,8.37
2018-09-27T11:11:34.201Z,9.03
2018-09-27T11:14:03.862Z,9.17
2018-09-27T11:16:33.946Z,9.28
2018-09-27T11:19:03.502Z,9.70
2018-09-27T11:21:43.289Z,9.40
2018-09-27T11:24:12.984Z,9.20
2018-09-27T11:26:43.216Z,8.53
2018-09-27T11:30:20.056Z,8.37
2018-09-27T11:32:55.284Z,9.07
2018-09-27T11:35:25.173Z,7.90
2018-09-27T11:37:54.749Z,7.70
2018-09-27T11:40:25.347Z,8.40
2018-09-27T11:42:55.521Z,8.43
2018-09-27T11:45:28.562Z,7.50
2018-09-27T11:47:58.039Z,7.23
2018-09-27T11:50:27.371Z,7.23
2018-09-27T11:52:58.099Z,7.00
2018-09-27T11:55:27.785Z,6.67
2018-09-27T11:58:10.327Z,6.23
2018-09-27T12:00:41.108Z,6.80
2018-09-27T12:03:11.993Z,6.53
2018-09-27T12:05:41.687Z,7.42
2018-09-27T12:08:11.177Z,7.10
2018-09-27T12:10:46.228Z,7.30
2018-09-27T12:13:15.688Z,6.55
2018-09-27T12:15:45.948Z,7.37
2018-09-27T12:18:15.616Z,7.30
2018-09-27T12:20:46.138Z,7.37
2018-09-27T12:23:16.179Z,7.78
2018-09-27T12:25:46.200Z,7.20
2018-09-27T12:28:15.543Z,7.15
2018-09-27T12:30:45.669Z,6.42
2018-09-27T12:33:15.196Z,7.10
2018-09-27T12:35:50.476Z,7.35
2018-09-27T12:38:19.760Z,6.53
2018-09-27T12:40:49.610Z,6.90
2018-09-27T12:43:19.044Z,6.65
2018-09-27T12:45:49.744Z,6.42
2018-09-27T12:48:19.122Z,6.67
2018-09-27T12:50:49.233Z,7.03
2018-09-27T12:53:18.596Z,6.17
2018-09-27T12:55:55.638Z,5.80
2018-09-27T12:58:25.356Z,5.80
2018-09-27T13:00:55.254Z,5.55
2018-09-27T13:03:25.139Z,4.80
2018-09-27T13:05:54.853Z,4.58
2018-09-27T13:08:32.978Z,4.45
2018-09-27T13:11:02.950Z,4.55
2018-09-27T13:13:33.137Z,3.83
2018-09-27T13:16:03.939Z,3.85
2018-09-27T13:18:34.689Z,3.92
2018-09-27T13:21:04.336Z,3.90
2018-09-27T13:23:35.124Z,3.75
2018-09-27T13:26:04.575Z,4.05
2018-09-27T13:28:34.251Z,3.62
2018-09-27T13:31:04.018Z,3.50
2018-09-27T13:33:33.441Z,3.50
2018-09-27T13:36:07.100Z,3.17
2018-09-27T13:38:36.430Z,3.55
2018-09-27T13:41:07.197Z,2.95
2018-09-27T13:43:36.588Z,3.25
2018-09-27T13:46:05.960Z,3.25
2018-09-27T13:48:35.609Z,3.27
2018-09-27T13:51:07.416Z,3.02
2018-09-27T13:53:36.869Z,3.50
2018-09-27T13:56:12.330Z,3.37
2018-09-27T13:58:42.564Z,3.15
2018-09-27T14:01:12.450Z,3.52
2018-09-27T14:03:42.315Z,3.77
2018-09-27T14:06:11.837Z,3.65
2018-09-27T14:08:41.080Z,3.95
2018-09-27T14:11:11.995Z,3.30
2018-09-27T14:13:41.745Z,3.20
2018-09-27T14:16:11.264Z,3.50
2018-09-27T14:18:42.282Z,3.67
2018-09-27T14:21:13.017Z,3.40
2018-09-27T14:23:44.461Z,3.77
2018-09-27T14:26:14.789Z,3.22
2018-09-27T14:28:45.413Z,3.50
2018-09-27T14:31:15.809Z,3.12
2018-09-27T14:33:49.786Z,3.58
2018-09-27T14:36:21.175Z,3.47
2018-09-27T14:38:52.605Z,3.95
2018-09-27T14:41:23.170Z,3.55
2018-09-27T14:43:55.384Z,3.50
2018-09-27T14:46:26.452Z,3.87
2018-09-27T14:48:57.184Z,3.52
2018-09-27T14:51:28.195Z,3.62
2018-09-27T14:54:00.015Z,3.83
2018-09-27T14:56:30.488Z,3.87
2018-09-27T14:59:01.106Z,3.87
2018-09-27T15:01:32.808Z,3.77
2018-09-27T15:04:03.269Z,3.70
2018-09-27T15:06:35.579Z,3.70
2018-09-27T15:09:08.066Z,3.65
2018-09-27T15:11:39.179Z,3.50
2018-09-27T15:14:11.322Z,4.22
2018-09-27T15:16:42.635Z,3.83
2018-09-27T15:19:13.388Z,4.03
2018-09-27T15:21:44.413Z,3.80
2018-09-27T15:24:14.721Z,3.75
2018-09-27T15:26:45.499Z,4.08
2018-09-27T15:29:17.215Z,4.03
2018-09-27T15:31:48.509Z,4.28
2018-09-27T15:34:19.466Z,4.80
2018-09-27T15:36:50.462Z,4.70
2018-09-27T15:39:21.439Z,5.85
2018-09-27T15:41:52.392Z,5.80
2018-09-27T15:44:25.463Z,4.87
2018-09-27T15:46:56.333Z,4.90
2018-09-27T15:49:27.351Z,5.40
2018-09-27T15:51:58.594Z,5.65
2018-09-27T15:54:30.378Z,6.05
2018-09-27T15:57:01.737Z,6.00
2018-09-27T15:59:32.198Z,5.58
2018-09-27T16:02:04.791Z,5.85
2018-09-27T16:04:41.505Z,4.97
2018-09-27T16:07:11.985Z,5.60
2018-09-27T16:09:48.645Z,5.70
2018-09-27T16:12:19.748Z,6.08
2018-09-27T16:14:51.605Z,5.55
2018-09-27T16:17:22.492Z,5.25
2018-09-27T16:19:54.536Z,5.33
2018-09-27T16:22:26.305Z,4.95
2018-09-27T16:24:57.235Z,4.60
2018-09-27T16:27:28.797Z,5.12
2018-09-27T16:29:59.597Z,4.72
2018-09-27T16:32:31.738Z,5.00
2018-09-27T16:35:07.570Z,3.90
2018-09-27T16:37:38.416Z,5.05
2018-09-27T16:40:09.602Z,4.17
2018-09-27T16:42:40.701Z,4.17
2018-09-27T16:45:11.365Z,4.60
2018-09-27T16:47:42.285Z,3.95
2018-09-27T16:50:13.894Z,4.15
2018-09-27T16:52:45.130Z,4.20
2018-09-27T16:55:16.812Z,4.37
2018-09-27T16:57:48.182Z,3.70
2018-09-27T17:00:18.138Z,4.07
2018-09-27T17:02:48.759Z,4.70
2018-09-27T17:05:18.973Z,4.30
2018-09-27T17:07:49.518Z,3.70
2018-09-27T17:10:23.369Z,3.53
2018-09-27T17:12:54.181Z,3.50
2018-09-27T17:15:25.064Z,4.23
2018-09-27T17:17:55.153Z,4.63
2018-09-27T17:20:25.072Z,3.30
2018-09-27T17:22:55.143Z,2.97
2018-09-27T17:25:25.448Z,3.10
2018-09-27T17:27:56.008Z,3.00
2018-09-27T17:30:26.486Z,3.10
2018-09-27T17:32:56.507Z,3.50
2018-09-27T17:35:26.504Z,3.23
2018-09-27T17:37:57.400Z,3.43
2018-09-27T17:40:27.712Z,3.03
2018-09-27T17:42:58.786Z,3.40
2018-09-27T17:45:29.114Z,3.23
2018-09-27T17:47:59.266Z,3.47
2018-09-27T17:50:29.654Z,3.33
2018-09-27T17:52:59.537Z,4.90
2018-09-27T17:55:31.166Z,6.77
2018-09-27T17:58:01.239Z,3.87
2018-09-27T18:00:31.698Z,5.13
2018-09-27T18:03:01.642Z,5.10
2018-09-27T18:05:32.372Z,4.53
2018-09-27T18:08:02.180Z,3.50
2018-09-27T18:10:32.402Z,3.87
2018-09-27T18:13:02.832Z,3.90
2018-09-27T18:15:34.687Z,3.60
2018-09-27T18:18:04.300Z,4.23
2018-09-27T18:20:34.325Z,3.70
2018-09-27T18:23:04.342Z,3.40
2018-09-27T18:25:34.110Z,4.17
2018-09-27T18:28:04.164Z,3.50
2018-09-27T18:30:34.662Z,3.43
2018-09-27T18:33:06.557Z,2.83
2018-09-27T18:35:37.163Z,2.47
2018-09-27T18:38:09.324Z,3.13
2018-09-27T18:40:39.281Z,2.70
2018-09-27T18:43:11.995Z,3.37
2018-09-27T18:45:43.187Z,3.40
2018-09-27T18:48:14.470Z,2.73
2018-09-27T18:50:44.809Z,2.67
2018-09-27T18:53:16.231Z,2.70
2018-09-27T18:55:48.563Z,2.97
2018-09-27T18:58:20.028Z,2.63
2018-09-27T19:00:55.721Z,3.57
2018-09-27T19:03:27.824Z,3.60
2018-09-27T19:05:58.922Z,2.80
2018-09-27T19:08:29.854Z,2.93
2018-09-27T19:11:02.086Z,3.10
2018-09-27T19:13:33.834Z,2.60
2018-09-27T19:16:04.217Z,3.03
2018-09-27T19:18:35.914Z,3.10
2018-09-27T19:21:07.069Z,2.87
2018-09-27T19:23:38.130Z,2.47
2018-09-27T19:26:09.045Z,2.83
2018-09-27T19:28:38.899Z,2.57
2018-09-27T19:31:09.131Z,2.97
2018-09-27T19:33:39.718Z,3.20
2018-09-27T19:36:14.104Z,2.77
2018-09-27T19:38:44.143Z,3.10
2018-09-27T19:41:18.869Z,2.63
2018-09-27T19:43:49.070Z,2.80
2018-09-27T19:46:19.028Z,3.20
2018-09-27T19:48:49.162Z,2.87
2018-09-27T19:51:24.632Z,3.30
2018-09-27T19:53:54.630Z,2.90
2018-09-27T19:56:27.871Z,3.50
2018-09-27T19:58:57.842Z,3.37
2018-09-27T20:01:32.742Z,3.10
2018-09-27T20:04:02.504Z,3.47
2018-09-27T20:06:32.455Z,3.50
2018-09-27T20:09:02.687Z,3.77
2018-09-27T20:11:32.414Z,3.67
2018-09-27T20:14:03.159Z,4.10
2018-09-27T20:16:33.722Z,3.57
2018-09-27T20:19:04.440Z,3.90
2018-09-27T20:21:36.024Z,3.80
2018-09-27T20:24:06.096Z,4.17
2018-09-27T20:26:36.387Z,4.20
2018-09-27T20:29:07.140Z,3.87
2018-09-27T20:31:37.426Z,3.63
2018-09-27T20:34:07.825Z,3.83
2018-09-27T20:36:39.326Z,4.00
2018-09-27T20:39:10.029Z,3.43
2018-09-27T20:41:43.733Z,3.77
2018-09-27T20:44:13.826Z,3.20
2018-09-27T20:46:44.028Z,3.57
2018-09-27T20:49:13.736Z,3.73
2018-09-27T20:51:43.327Z,3.73
2018-09-27T20:54:13.114Z,3.60
2018-09-27T20:56:43.129Z,3.93
2018-09-27T20:59:13.536Z,3.77
2018-09-27T21:01:44.058Z,4.10
2018-09-27T21:04:14.863Z,3.80
2018-09-27T21:06:46.083Z,4.03
2018-09-27T21:09:17.819Z,3.87
2018-09-27T21:11:49.469Z,3.57
2018-09-27T21:14:20.393Z,3.67
2018-09-27T21:16:51.385Z,3.57
2018-09-27T21:19:23.013Z,3.80
2018-09-27T21:21:53.070Z,4.20
2018-09-27T21:24:31.257Z,4.47
2018-09-27T21:27:02.379Z,3.87
2018-09-27T21:29:33.330Z,4.30
2018-09-27T21:32:04.521Z,4.33
2018-09-27T21:34:35.974Z,4.80
2018-09-27T21:37:08.302Z,4.10
2018-09-27T21:39:39.550Z,5.67
2018-09-27T21:42:10.689Z,4.43
2018-09-27T21:44:41.676Z,5.00
2018-09-27T21:47:12.538Z,4.40
2018-09-27T21:49:44.056Z,4.50
2018-09-27T21:52:13.935Z,4.20
2018-09-27T21:54:44.896Z,4.63
2018-09-27T21:57:15.885Z,4.00
2018-09-27T21:59:47.197Z,4.13
2018-09-27T22:02:18.567Z,3.73
2018-09-27T22:04:48.548Z,4.23
2018-09-27T22:07:19.572Z,4.23
2018-09-27T22:09:49.657Z,4.17
2018-09-27T22:12:19.727Z,4.17
2018-09-27T22:14:51.396Z,4.37
2018-09-27T22:17:22.293Z,4.17
2018-09-27T22:19:53.633Z,3.50
2018-09-27T22:22:25.365Z,4.43
2018-09-27T22:24:56.991Z,4.20
2018-09-27T22:27:28.855Z,4.00
2018-09-27T22:30:00.251Z,4.20
2018-09-27T22:32:31.909Z,4.07
2018-09-27T22:35:03.936Z,4.37
2018-09-27T22:37:35.006Z,4.53
2018-09-27T22:40:06.282Z,4.40
2018-09-27T22:42:37.397Z,4.57
2018-09-27T22:45:09.139Z,4.77
2018-09-27T22:47:41.951Z,4.23
2018-09-27T22:50:13.161Z,4.50
2018-09-27T22:52:46.548Z,4.97
2018-09-27T22:55:18.105Z,4.90
2018-09-27T22:57:49.644Z,5.27
2018-09-27T23:00:20.942Z,5.03
2018-09-27T23:02:52.188Z,4.53
2018-09-27T23:05:23.793Z,4.20
2018-09-27T23:07:54.862Z,4.97
2018-09-27T23:10:26.007Z,4.90
2018-09-27T23:12:57.703Z,5.40
2018-09-27T23:15:29.474Z,5.80
2018-09-27T23:18:01.048Z,6.13
2018-09-27T23:20:32.742Z,5.33
2018-09-27T23:23:04.900Z,6.03
2018-09-27T23:25:41.525Z,6.60
2018-09-27T23:28:12.517Z,5.03
2018-09-27T23:30:43.602Z,6.13
2018-09-27T23:33:14.245Z,5.87
2018-09-27T23:35:45.596Z,5.90
2018-09-27T23:38:16.997Z,5.60
2018-09-27T23:40:48.156Z,6.27
2018-09-27T23:43:20.162Z,6.60
2018-09-27T23:45:51.482Z,6.23
2018-09-27T23:48:23.171Z,6.50
2018-09-27T23:50:54.733Z,6.67
2018-09-27T23:53:26.831Z,6.03
2018-09-27T23:56:00.929Z,6.00
2018-09-27T23:58:33.018Z,5.20
